AirNav   Air Wisconsin Up To $57,000 Bonus
 
 837 users online  

38FD Griffin's Main Office Heliport
Frostproof, Florida, USA

GOING TO FROSTPROOF?


FAA INFORMATION EFFECTIVE 02 JANUARY 2020

Location

FAA Identifier: 38FD
Lat/Long: 27-44-13.1060N 081-31-55.2720W
27-44.218433N 081-31.921200W
27.7369739,-81.5320200
(estimated)
Elevation: 125 ft. / 38 m (estimated)
Variation: 03W (1990)
Time zone: UTC -5 (UTC -4 during Daylight Saving Time)
Zip code: 33843

Heliport Operations

Heliport use: Private use. Permission required prior to landing
Activation date: 02/1992
Control tower: no
ARTCC: MIAMI CENTER
FSS: SAINT PETERSBURG FLIGHT SERVICE STATION
Attendance: UNATNDD
Wind indicator: yes
Segmented circle: no

Heliport Communications

WX AWOS-3 at AVO (9 nm S): 118.725 (863-453-4223)
WX AWOS-3 at X07 (11 nm NW): 124.225 (863-678-1334)
WX AWOS-3 at BOW (18 nm NW): 123.775 (863-533-9004)
WX AWOS-3 at SEF (20 nm SE): 119.475 (863-655-6424)

Nearby radio navigation aids

VOR radial/distance  VOR name  Freq  Var
LALr119/29.6LAKELAND VORTAC116.0001E

Heliport Services

Runway Information

Helipad H1

Dimensions: 60 x 60 ft. / 18 x 18 m
Surface: turf
Traffic pattern: leftleft

Heliport Ownership and Management from official FAA records

Ownership: Privately-owned
Owner: BEN HILL GRIFFIN INC.
P.O. BOX 127
FROSTPROOF, FL 33843
Phone 863-635-2251
Manager: STEWART W. HURST
P.O. BOX 127
FROSTPROOF, FL 33843
Phone 863-635-2251

Additional Remarks

FOR CD CTC MIAMI ARTCC AT 305-716-1731.

Instrument Procedures

There are no published instrument procedures at 38FD.

Some nearby airports with instrument procedures:

KAVO - Avon Park Executive Airport (9 nm S)
X07 - Lake Wales Municipal Airport (11 nm NW)
KBOW - Bartow Executive Airport (18 nm NW)
KSEF - Sebring Regional Airport (20 nm SE)
KGIF - Winter Haven Regional Airport (23 nm NW)
 
Loc | Ops | Rwys | IFR | FBO | Links
Com | Nav | Svcs | Stats | Notes

Reliance Aviation
AirBoss

 
Area around 38FD (Griffin's Main Office Heliport)
 
Road maps at: MapQuest Bing Google
 
Aerial photo
No photo
 
Sectional chart

 
Airport distance calculator
Flying to Griffin's Main Office Heliport? Find the distance to fly.

From to 38FD

Sunrise and sunset
Times for 21-Jan-2020
 Local
(UTC-5)
 Zulu
(UTC)
Morning civil twilight06:5311:53
Sunrise07:1812:18
Sunset17:5722:57
Evening civil twilight18:2223:22

Current date and time
Zulu (UTC)  22-Jan-2020 03:49:12
Local (UTC-5)  21-Jan-2020 22:49:12
 
METAR
KX07 
11nm NW 
220335Z AUTO 36008G13KT 10SM BKN033 05/M05 A3026 RMK A01
KBOW 
17nm NW 
220335Z AUTO 34011KT 10SM CLR 06/M07 A3024 RMK AO2
KSEF 
20nm SE 
220335Z AUTO 36012KT 10SM CLR 05/M02 A3023 RMK AO2 T00521023
TAF
KLAL 
29nm NW 
211728Z 2118/2218 36015G20KT P6SM FEW030 FM221500 01010G15KT P6SM SKC
KISM 
33nm N 
211742Z 2118/2218 34015G22KT P6SM FEW040 FM220000 34013G19KT P6SM SKC FM221500 34014G22KT P6SM SCT035
NOTAMs
Click for the latest NOTAMs
NOTAMs are issued by the DoD/FAA and will open in a separate window not controlled by AirNav.

 

 
 

Would you like to see your business listed on this page?

 If your business provides an interesting product or service to pilots, flight crews, aircraft, or users of the Griffin's Main Office Heliport, you should consider listing it here.  To start the listing process, click on the button below
 
Add a business
 

Other Pages about Griffin's Main Office Heliport

Update a link
 
Copyright © AirNav, LLC. All rights reserved. Privacy Policy  Contact